AirNav   Everest Fuels
 
 984 users online  

17TE Comfort Airpark
Comfort, Texas, USA

GOING TO COMFORT?


FAA INFORMATION EFFECTIVE 07 NOVEMBER 2019

Location

FAA Identifier: 17TE
Lat/Long: 29-55-44.7790N 098-56-25.1230W
29-55.746317N 098-56.418717W
29.9291053,-98.9403119
(estimated)
Elevation: 1470 ft. / 448 m (estimated)
Variation: 07E (1985)
From city: 3 miles SW of COMFORT, TX
Time zone: UTC -6 (UTC -5 during Daylight Saving Time)
Zip code: 78010

Airport Operations

Airport use: Private use. Permission required prior to landing
Activation date: 03/1971
Control tower: no
ARTCC: HOUSTON CENTER
FSS: SAN ANGELO FLIGHT SERVICE STATION
Attendance: CONTINUOUS
OWNER RESIDES ON AIRPORT.
Wind indicator: yes
Segmented circle: no

Airport Communications

WX AWOS-3 at ERV (8 nm W): 118.125 (830-895-2204)
WX AWOS-3 at 5C1 (18 nm SE): 118.725 (830-755-9099)
WX AWOS-3 at T82 (19 nm N): 120.0 (830-990-2716)
  • MULTICOM 123.500.

Nearby radio navigation aids

VOR radial/distance  VOR name  Freq  Var
CSIr080/14.3CENTER POINT VORTAC117.5008E
STVr208/20.6STONEWALL VORTAC113.8008E
SATr296/30.2SAN ANTONIO VORTAC116.8008E

 
NDB name  Hdg/Dist  Freq  Var  ID
HONDO012/35.532908EHMA .... -- .-

Airport Services

Fuel available: 100LL
Airframe service: NONE
Powerplant service: NONE

Runway Information

Runway 14/32

Dimensions: 1950 x 30 ft. / 594 x 9 m
Surface: turf
RUNWAY 14  RUNWAY 32
Traffic pattern: leftleft
Obstructions: 4 ft. fence, marked, 50 ft. from runway15 ft. trees, 50 ft. from runway

Airport Ownership and Management from official FAA records

Ownership: Privately-owned
Owner: ANNA STEGMANN
PO BOX 293532
KERRVILLE, TX 78029
Phone 830-257-3885
Manager: DEAN CARDIN
PO BOX 293532
KERRVILLE, TX 78029
Phone 830-257-3885
MS. PAT KNOX IS THE AIRPORT BOOKKEEPER.

Airport Operational Statistics

Aircraft based on the field: 2
Single engine airplanes: 2
    

Additional Remarks

FOR CD CTC HOUSTON ARTCC AT 281-230-5622.

Instrument Procedures

There are no published instrument procedures at 17TE.

Some nearby airports with instrument procedures:

KERV - Kerrville Municipal Airport/Louis Schreiner Field (8 nm W)
5C1 - Boerne Stage Field Airport (18 nm SE)
T82 - Gillespie County Airport (19 nm N)
KSAT - San Antonio International Airport (34 nm SE)
KCVB - Castroville Municipal Airport (36 nm S)
 
Loc | Ops | Rwys | IFR | FBO | Links
Com | Nav | Svcs | Stats | Notes
Area around 17TE (Comfort Airpark)
 
Road maps at: MapQuest Bing Google
 
Aerial photo
No photo
 
Sectional chart

 
Airport distance calculator
Flying to Comfort Airpark? Find the distance to fly.

From to 17TE

Sunrise and sunset
Times for 21-Nov-2019
 Local
(UTC-6)
 Zulu
(UTC)
Morning civil twilight06:4112:41
Sunrise07:0713:07
Sunset17:3723:37
Evening civil twilight18:0200:02

Current date and time
Zulu (UTC)  22-Nov-2019 02:27:21
Local (UTC-6)  21-Nov-2019 20:27:21
 
METAR
KERV 
8nm NW 
220215Z AUTO 00000KT 10SM SCT038 19/17 A2993 RMK AO2 T01900165
K5C1 
18nm SE 
220215Z AUTO 00000KT 10SM BKN038 20/17 A2995 RMK AO1
KT82 
19nm N 
220215Z AUTO 00000KT 10SM BKN034 20/16 A2994 RMK AO2 T01960157
TAF
KSAT 
34nm SE 
211740Z 2118/2224 16007KT P6SM BKN022 OVC035 FM211900 15011KT P6SM BKN035 FM220300 15009KT P6SM BKN015 FM220900 17006KT 6SM BR OVC007 FM221200 17004KT 5SM BR VCSH OVC004 FM221600 36009KT P6SM VCSH OVC011 FM222100 35012KT P6SM OVC025
KSKF 
39nm SE 
212010Z 2120/2302 14012KT 9999 BKN040 BKN250 QNH2983INS BECMG 2205/2206 15007KT 9999 BKN015 QNH2991INS BECMG 2209/2210 15007KT 8000 -DZ BR OVC007 QNH2992INS TEMPO 2211/2215 3200 -RA BR OVC005 BECMG 2215/2216 36009KT 9999 VCSH BKN015 QNH2995INS BECMG 2217/2218 35012G18KT 9999 NSW BKN025 QNH3000INS TX27/2121Z TN16/2212Z
NOTAMs
Click for the latest NOTAMs
NOTAMs are issued by the DoD/FAA and will open in a separate window not controlled by AirNav.

 

 
 

Would you like to see your business listed on this page?

 If your business provides an interesting product or service to pilots, flight crews, aircraft, or users of the Comfort Airpark, you should consider listing it here.  To start the listing process, click on the button below
 
Add a business
 

Other Pages about Comfort Airpark

Update a link
 
Copyright © AirNav, LLC. All rights reserved. Privacy Policy  Contact